createdAt,value
2023-05-08T00:01:13.167Z,9.18
2023-05-08T00:06:14.800Z,10.25
2023-05-08T00:11:16.460Z,10.35
2023-05-08T00:16:18.173Z,10.05
2023-05-08T00:21:19.917Z,10.77
2023-05-08T00:26:21.837Z,9.98
2023-05-08T00:31:24.113Z,10.63
2023-05-08T00:36:26.082Z,11.38
2023-05-08T00:41:27.875Z,9.65
2023-05-08T00:46:30.385Z,11.43
2023-05-08T00:51:32.711Z,10.35
2023-05-08T00:56:37.410Z,11.30
2023-05-08T01:01:40.804Z,10.85
2023-05-08T01:06:42.437Z,10.95
2023-05-08T01:12:09.974Z,10.65
2023-05-08T01:17:26.829Z,10.18
2023-05-08T01:22:49.797Z,10.57
2023-05-08T01:28:13.686Z,9.90
2023-05-08T01:33:30.545Z,9.68
2023-05-08T01:38:51.107Z,10.52
2023-05-08T01:44:03.922Z,12.13
2023-05-08T01:49:09.577Z,11.55
2023-05-08T01:54:16.585Z,11.75
2023-05-08T01:59:21.967Z,11.63
2023-05-08T02:04:25.092Z,10.93
2023-05-08T02:09:29.414Z,11.90
2023-05-08T02:14:32.844Z,12.63
2023-05-08T02:19:36.352Z,12.43
2023-05-08T02:24:38.827Z,11.63
2023-05-08T02:29:40.645Z,12.25
2023-05-08T02:34:54.863Z,11.23
2023-05-08T02:40:04.224Z,12.85
2023-05-08T02:45:07.483Z,12.82
2023-05-08T02:50:18.421Z,11.45
2023-05-08T02:55:36.319Z,11.18
2023-05-08T03:00:45.349Z,13.18
2023-05-08T03:06:12.033Z,11.50
2023-05-08T03:11:21.728Z,11.48
2023-05-08T03:16:25.992Z,11.45
2023-05-08T03:21:30.473Z,10.88
2023-05-08T03:26:32.364Z,10.07
2023-05-08T03:31:35.380Z,10.25
2023-05-08T03:36:38.355Z,10.27
2023-05-08T03:41:40.429Z,10.13
2023-05-08T03:46:42.861Z,9.50
2023-05-08T03:51:44.737Z,9.10
2023-05-08T03:56:47.896Z,8.23
2023-05-08T04:02:10.148Z,8.60
2023-05-08T04:07:30.473Z,8.38
2023-05-08T04:12:45.234Z,8.00
2023-05-08T04:17:55.858Z,7.18
2023-05-08T04:22:58.886Z,7.47
2023-05-08T04:28:02.577Z,7.70
2023-05-08T04:33:07.765Z,7.10
2023-05-08T04:38:10.299Z,7.32
2023-05-08T04:43:12.424Z,7.05
2023-05-08T04:48:14.359Z,7.20
2023-05-08T04:53:16.240Z,6.43
2023-05-08T04:58:17.985Z,7.40
2023-05-08T05:03:19.962Z,6.68
2023-05-08T05:08:21.707Z,6.90
2023-05-08T05:13:23.728Z,6.38
2023-05-08T05:18:25.667Z,6.07
2023-05-08T05:23:28.803Z,6.47
2023-05-08T05:28:30.719Z,5.75
2023-05-08T05:33:32.474Z,5.65
2023-05-08T05:38:34.217Z,5.80
2023-05-08T05:43:36.051Z,5.78
2023-05-08T05:48:37.829Z,6.00
2023-05-08T05:53:40.487Z,5.57
2023-05-08T05:58:44.927Z,6.15
2023-05-08T06:03:47.513Z,5.72
2023-05-08T06:08:49.550Z,5.95
2023-05-08T06:13:51.148Z,5.55
2023-05-08T06:18:53.559Z,5.20
2023-05-08T06:23:55.479Z,4.75
2023-05-08T06:28:57.065Z,5.47
2023-05-08T06:33:58.677Z,5.40
2023-05-08T06:39:00.268Z,5.40
2023-05-08T06:44:01.894Z,5.30
2023-05-08T06:49:03.644Z,5.15
2023-05-08T06:54:08.626Z,4.65
2023-05-08T06:59:10.769Z,4.50
2023-05-08T07:04:12.719Z,4.68
2023-05-08T07:09:15.157Z,4.78
2023-05-08T07:14:16.877Z,4.47
2023-05-08T07:19:20.509Z,5.20
2023-05-08T07:24:24.696Z,3.92
2023-05-08T07:29:27.045Z,4.53
2023-05-08T07:34:28.847Z,4.68
2023-05-08T07:39:30.542Z,4.45
2023-05-08T07:44:43.524Z,4.35
2023-05-08T07:49:53.346Z,4.13
2023-05-08T07:54:55.145Z,4.05
2023-05-08T08:00:01.929Z,3.63
2023-05-08T08:05:15.219Z,3.97
2023-05-08T08:10:17.486Z,4.07
2023-05-08T08:15:19.358Z,3.60
2023-05-08T08:20:21.262Z,3.20
2023-05-08T08:25:22.967Z,3.45
2023-05-08T08:30:24.723Z,4.03
2023-05-08T08:35:29.367Z,3.90
2023-05-08T08:40:31.111Z,4.05
2023-05-08T08:45:32.826Z,4.30
2023-05-08T08:50:36.388Z,3.95
2023-05-08T08:55:45.587Z,3.90
2023-05-08T09:00:48.351Z,3.72
2023-05-08T09:05:50.526Z,3.90
2023-05-08T09:10:54.867Z,3.45
2023-05-08T09:15:58.361Z,3.20
2023-05-08T09:21:01.815Z,3.60
2023-05-08T09:26:03.481Z,3.00
2023-05-08T09:31:06.215Z,3.03
2023-05-08T09:36:27.878Z,2.95
2023-05-08T09:41:29.794Z,2.95
2023-05-08T09:46:34.026Z,3.63
2023-05-08T09:51:35.705Z,3.58
2023-05-08T09:56:39.594Z,3.15
2023-05-08T10:01:42.057Z,3.35
2023-05-08T10:06:43.921Z,2.97
2023-05-08T10:11:52.632Z,3.55
2023-05-08T10:16:54.874Z,3.00
2023-05-08T10:22:00.019Z,2.70
2023-05-08T10:27:13.917Z,3.00
2023-05-08T10:32:19.090Z,2.88
2023-05-08T10:37:21.206Z,2.50
2023-05-08T10:42:23.095Z,3.03
2023-05-08T10:47:24.647Z,3.10
2023-05-08T10:52:29.523Z,3.47
2023-05-08T10:57:31.800Z,2.97
2023-05-08T11:02:37.031Z,3.20
2023-05-08T11:07:58.780Z,2.45
2023-05-08T11:13:01.579Z,2.80
2023-05-08T11:18:07.148Z,2.28
2023-05-08T11:23:22.756Z,2.50
2023-05-08T11:28:24.625Z,3.00
2023-05-08T11:33:31.432Z,3.40
2023-05-08T11:38:38.118Z,3.00
2023-05-08T11:44:14.899Z,2.60
2023-05-08T11:49:19.655Z,2.53
2023-05-08T11:54:26.365Z,2.13
2023-05-08T11:59:28.039Z,2.45
2023-05-08T12:04:29.762Z,2.40
2023-05-08T12:09:31.608Z,2.80
2023-05-08T12:14:34.800Z,3.25
2023-05-08T12:19:36.518Z,2.50
2023-05-08T12:24:39.324Z,2.60
2023-05-08T12:29:45.208Z,2.33
2023-05-08T12:34:46.901Z,2.30
2023-05-08T12:39:48.510Z,2.10
2023-05-08T12:44:51.724Z,2.10
2023-05-08T12:49:58.122Z,2.30
2023-05-08T12:54:59.723Z,1.98
2023-05-08T13:00:05.216Z,1.50
2023-05-08T13:05:07.065Z,2.30
2023-05-08T13:10:09.332Z,2.42
2023-05-08T13:15:11.851Z,2.00
2023-05-08T13:20:13.737Z,2.13
2023-05-08T13:25:15.963Z,2.25
2023-05-08T13:30:18.050Z,1.90
2023-05-08T13:35:20.770Z,1.95
2023-05-08T13:40:22.558Z,1.80
2023-05-08T13:45:24.439Z,1.50
2023-05-08T13:50:26.179Z,2.25
2023-05-08T13:55:27.770Z,1.88
2023-05-08T14:00:30.209Z,1.75
2023-05-08T14:05:31.832Z,2.03
2023-05-08T14:10:33.686Z,2.17
2023-05-08T14:15:37.822Z,1.92
2023-05-08T14:20:39.588Z,1.73
2023-05-08T14:25:41.180Z,1.52
2023-05-08T14:30:42.986Z,1.88
2023-05-08T14:35:45.923Z,1.20
2023-05-08T14:40:50.869Z,2.00
2023-05-08T14:45:52.478Z,1.55
2023-05-08T14:50:54.392Z,1.48
2023-05-08T14:55:56.418Z,1.70
2023-05-08T15:00:58.287Z,1.67
2023-05-08T15:05:59.917Z,1.70
2023-05-08T15:11:01.724Z,1.42
2023-05-08T15:16:03.429Z,1.50
2023-05-08T15:21:05.584Z,1.50
2023-05-08T15:26:08.429Z,1.65
2023-05-08T15:31:10.048Z,1.20
2023-05-08T15:36:13.476Z,1.60
2023-05-08T15:41:15.680Z,1.27
2023-05-08T15:46:17.685Z,1.30
2023-05-08T15:51:19.476Z,1.33
2023-05-08T15:56:24.455Z,1.30
2023-05-08T16:01:26.191Z,1.50
2023-05-08T16:06:28.001Z,0.95
2023-05-08T16:11:32.801Z,1.30
2023-05-08T16:16:34.452Z,1.58
2023-05-08T16:21:36.122Z,1.23
2023-05-08T16:26:37.728Z,1.10
2023-05-08T16:31:39.437Z,1.33
2023-05-08T16:36:41.280Z,1.10
2023-05-08T16:41:42.909Z,1.02
2023-05-08T16:46:44.564Z,1.08
2023-05-08T16:51:46.246Z,1.08
2023-05-08T16:56:48.207Z,1.10
2023-05-08T17:01:49.824Z,1.05
2023-05-08T17:06:51.628Z,1.50
2023-05-08T17:11:53.734Z,1.40
2023-05-08T17:16:55.484Z,1.60
2023-05-08T17:21:59.470Z,2.00
2023-05-08T17:27:01.533Z,2.00
2023-05-08T17:32:03.263Z,2.60
2023-05-08T17:37:04.926Z,2.38
2023-05-08T17:42:06.545Z,2.90
2023-05-08T17:47:09.210Z,2.42
2023-05-08T17:52:11.092Z,3.22
2023-05-08T17:57:12.683Z,2.55
2023-05-08T18:02:14.282Z,2.92
2023-05-08T18:07:16.001Z,2.38
2023-05-08T18:12:17.896Z,2.85
2023-05-08T18:17:20.586Z,2.65
2023-05-08T18:22:22.496Z,2.92
2023-05-08T18:27:24.492Z,2.50
2023-05-08T18:32:26.130Z,2.90
2023-05-08T18:37:28.733Z,3.10
2023-05-08T18:42:30.482Z,2.83
2023-05-08T18:47:32.789Z,2.50
2023-05-08T18:52:34.404Z,3.00
2023-05-08T18:57:36.089Z,3.50
2023-05-08T19:02:37.745Z,3.70
2023-05-08T19:07:39.715Z,5.07
2023-05-08T19:12:41.487Z,3.13
2023-05-08T19:17:43.360Z,2.45
2023-05-08T19:22:46.756Z,2.65
2023-05-08T19:27:48.680Z,3.55
2023-05-08T19:32:50.515Z,3.03
2023-05-08T19:37:52.082Z,3.10
2023-05-08T19:42:53.674Z,2.83
2023-05-08T19:47:55.361Z,2.92
2023-05-08T19:52:57.043Z,3.20
2023-05-08T19:57:59.763Z,2.97
2023-05-08T20:03:01.750Z,2.83
2023-05-08T20:08:03.518Z,3.05
2023-05-08T20:13:05.611Z,2.95
2023-05-08T20:18:07.450Z,2.92
2023-05-08T20:23:09.266Z,3.25
2023-05-08T20:28:10.863Z,2.85
2023-05-08T20:33:12.467Z,3.17
2023-05-08T20:38:16.155Z,3.72
2023-05-08T20:43:17.841Z,3.30
2023-05-08T20:48:19.734Z,3.00
2023-05-08T20:53:21.318Z,3.42
2023-05-08T20:58:23.093Z,3.30
2023-05-08T21:03:24.874Z,3.42
2023-05-08T21:08:26.573Z,3.42
2023-05-08T21:13:28.419Z,4.50
2023-05-08T21:18:30.275Z,4.25
2023-05-08T21:23:31.969Z,3.63
2023-05-08T21:28:34.223Z,3.72
2023-05-08T21:33:35.954Z,4.38
2023-05-08T21:38:37.560Z,4.03
2023-05-08T21:43:39.398Z,3.97
2023-05-08T21:48:40.987Z,3.50
2023-05-08T21:53:42.615Z,4.18
2023-05-08T21:58:44.253Z,3.95
2023-05-08T22:03:45.894Z,4.03
2023-05-08T22:08:47.963Z,4.68
2023-05-08T22:13:49.552Z,4.60
2023-05-08T22:18:51.124Z,5.40
2023-05-08T22:23:52.746Z,5.32
2023-05-08T22:28:55.282Z,4.90
2023-05-08T22:33:58.341Z,4.20
2023-05-08T22:39:01.120Z,4.50
2023-05-08T22:44:03.046Z,4.85
2023-05-08T22:49:04.681Z,4.10
2023-05-08T22:54:06.560Z,3.97
2023-05-08T22:59:08.208Z,4.20
2023-05-08T23:04:09.888Z,4.28
2023-05-08T23:09:11.476Z,5.00
2023-05-08T23:14:13.186Z,4.53
2023-05-08T23:19:15.687Z,4.82
2023-05-08T23:24:18.293Z,4.30
2023-05-08T23:29:20.938Z,5.28
2023-05-08T23:34:22.511Z,4.10
2023-05-08T23:39:24.519Z,4.97
2023-05-08T23:44:26.100Z,4.35
2023-05-08T23:49:29.072Z,4.63
2023-05-08T23:54:30.650Z,4.60
2023-05-08T23:59:32.240Z,5.15
